Terminal Aerodrome Forecast
Issued by NWS Chicago, IL

Home | Current Version | Previous Version | Graphics & Text | Print | Product List | Glossary Off
Versions: 1 2 3 4 5 6 7 8 9 10 11 12 13 14 15 16 17 18 19 20 21 22 23 24

958
FTUS43 KLOT 280547
TAFRFD
TAF
KRFD 280547Z 2806/2906 VRB03KT P6SM FEW035 BKN080
     FM281100 08004KT P6SM -SHRA VCTS BKN035CB
     FM281300 07004KT 6SM -SHRA SCT015 BKN025
     FM281600 32006KT P6SM VCSH SCT025 BKN035
     FM281700 29012KT P6SM SCT040 BKN100
     FM282300 28008KT P6SM SCT150=

USA.gov is the U.S. government's official web portal to all federal, state and local government web resources and services.